createdAt,value
2019-05-13T00:00:29.117Z,3.10
2019-05-13T00:01:29.165Z,3.00
2019-05-13T00:02:29.179Z,3.40
2019-05-13T00:03:29.132Z,3.20
2019-05-13T00:04:29.188Z,3.00
2019-05-13T00:05:29.171Z,2.80
2019-05-13T00:06:29.125Z,3.00
2019-05-13T00:07:29.173Z,3.00
2019-05-13T00:08:29.174Z,2.90
2019-05-13T00:09:29.149Z,3.10
2019-05-13T00:10:29.194Z,3.10
2019-05-13T00:11:29.170Z,2.90
2019-05-13T00:12:29.131Z,3.00
2019-05-13T00:13:29.182Z,3.20
2019-05-13T00:14:29.179Z,2.60
2019-05-13T00:15:29.136Z,3.10
2019-05-13T00:16:29.197Z,3.20
2019-05-13T00:17:29.184Z,2.80
2019-05-13T00:18:29.201Z,3.10
2019-05-13T00:19:29.198Z,3.40
2019-05-13T00:20:29.187Z,3.30
2019-05-13T00:21:29.141Z,3.40
2019-05-13T00:22:29.170Z,2.90
2019-05-13T00:23:29.163Z,2.90
2019-05-13T00:24:29.144Z,3.10
2019-05-13T00:25:29.191Z,3.20
2019-05-13T00:26:29.182Z,3.00
2019-05-13T00:27:29.141Z,3.10
2019-05-13T00:28:29.209Z,3.10
2019-05-13T00:29:29.183Z,3.00
2019-05-13T00:30:29.200Z,3.30
2019-05-13T00:31:29.177Z,3.20
2019-05-13T00:32:29.191Z,3.10
2019-05-13T00:33:29.161Z,3.10
2019-05-13T00:34:29.206Z,3.20
2019-05-13T00:35:29.188Z,3.10
2019-05-13T00:36:29.136Z,3.50
2019-05-13T00:37:29.199Z,3.00
2019-05-13T00:38:29.179Z,3.30
2019-05-13T00:39:29.233Z,3.00
2019-05-13T00:40:29.227Z,3.20
2019-05-13T00:41:29.205Z,3.40
2019-05-13T00:42:29.208Z,3.10
2019-05-13T00:43:29.192Z,3.00
2019-05-13T00:44:29.196Z,3.40
2019-05-13T00:45:29.165Z,3.10
2019-05-13T00:46:29.212Z,3.40
2019-05-13T00:47:29.200Z,2.90
2019-05-13T00:48:29.845Z,3.40
2019-05-13T00:49:29.200Z,3.10
2019-05-13T00:50:29.173Z,3.20
2019-05-13T00:51:29.180Z,3.30
2019-05-13T00:52:29.229Z,3.40
2019-05-13T00:53:29.204Z,3.40
2019-05-13T00:54:29.161Z,3.50
2019-05-13T00:55:29.180Z,3.00
2019-05-13T00:56:29.201Z,3.20
2019-05-13T00:57:29.183Z,3.40
2019-05-13T00:58:29.241Z,3.50
2019-05-13T00:59:29.214Z,3.70
2019-05-13T01:00:29.163Z,3.80
2019-05-13T01:01:29.224Z,3.40
2019-05-13T01:02:29.219Z,3.50
2019-05-13T01:03:29.198Z,3.20
2019-05-13T01:04:29.243Z,3.70
2019-05-13T01:05:29.216Z,3.20
2019-05-13T01:06:29.177Z,3.20
2019-05-13T01:07:29.179Z,3.70
2019-05-13T01:08:29.218Z,3.30
2019-05-13T01:09:29.185Z,3.20
2019-05-13T01:10:29.238Z,3.30
2019-05-13T01:11:29.206Z,3.30
2019-05-13T01:12:29.172Z,3.50
2019-05-13T01:13:29.239Z,3.40
2019-05-13T01:14:29.225Z,3.10
2019-05-13T01:15:29.191Z,3.40
2019-05-13T01:16:29.241Z,3.80
2019-05-13T01:17:29.203Z,3.30
2019-05-13T01:18:29.176Z,3.20
2019-05-13T01:19:29.239Z,3.40
2019-05-13T01:20:29.250Z,3.50
2019-05-13T01:21:29.252Z,3.40
2019-05-13T01:22:29.250Z,3.20
2019-05-13T01:23:29.234Z,3.60
2019-05-13T01:24:29.184Z,4.00
2019-05-13T01:25:29.236Z,3.80
2019-05-13T01:26:29.234Z,3.70
2019-05-13T01:27:29.234Z,3.50
2019-05-13T01:28:29.261Z,3.30
2019-05-13T01:29:29.210Z,3.50
2019-05-13T01:30:29.189Z,3.50
2019-05-13T01:31:29.237Z,3.70
2019-05-13T01:32:29.243Z,3.60
2019-05-13T01:33:29.202Z,3.80
2019-05-13T01:34:29.242Z,3.40
2019-05-13T01:35:29.248Z,3.50
2019-05-13T01:36:29.192Z,3.70
2019-05-13T01:37:39.963Z,3.80
2019-05-13T01:38:29.244Z,3.80
2019-05-13T01:39:29.219Z,3.70
2019-05-13T01:40:29.258Z,4.20
2019-05-13T01:41:29.235Z,3.70
2019-05-13T01:42:29.241Z,3.80
2019-05-13T01:43:29.263Z,3.90
2019-05-13T01:44:29.251Z,3.50
2019-05-13T01:45:29.207Z,4.00
2019-05-13T01:46:29.274Z,4.00
2019-05-13T01:47:29.247Z,3.90
2019-05-13T01:48:29.247Z,3.90
2019-05-13T01:49:29.248Z,3.80
2019-05-13T01:50:29.253Z,4.00
2019-05-13T01:51:29.215Z,3.50
2019-05-13T01:52:29.273Z,4.20
2019-05-13T01:53:29.243Z,3.80
2019-05-13T01:54:29.203Z,4.30
2019-05-13T01:55:29.263Z,3.90
2019-05-13T01:56:29.232Z,3.80
2019-05-13T01:57:29.215Z,4.10
2019-05-13T01:58:29.282Z,4.30
2019-05-13T01:59:29.257Z,4.00
2019-05-13T02:00:29.227Z,4.20
2019-05-13T02:01:29.244Z,4.20
2019-05-13T02:02:29.254Z,4.10
2019-05-13T02:03:29.227Z,4.10
2019-05-13T02:04:29.282Z,4.40
2019-05-13T02:05:29.266Z,4.70
2019-05-13T02:06:29.211Z,4.40
2019-05-13T02:07:29.259Z,3.90
2019-05-13T02:08:29.247Z,3.90
2019-05-13T02:09:29.288Z,4.20
2019-05-13T02:10:29.290Z,4.10
2019-05-13T02:11:29.258Z,4.00
2019-05-13T02:12:29.225Z,4.20
2019-05-13T02:13:29.272Z,4.10
2019-05-13T02:14:29.272Z,4.30
2019-05-13T02:15:29.230Z,4.60
2019-05-13T02:16:29.295Z,4.90
2019-05-13T02:17:29.274Z,4.20
2019-05-13T02:18:29.242Z,4.00
2019-05-13T02:19:29.281Z,4.30
2019-05-13T02:20:29.252Z,4.00
2019-05-13T02:21:29.237Z,4.10
2019-05-13T02:22:29.297Z,4.00
2019-05-13T02:23:29.279Z,4.10
2019-05-13T02:24:29.228Z,4.00
2019-05-13T02:25:29.280Z,4.20
2019-05-13T02:26:29.282Z,4.50
2019-05-13T02:27:29.240Z,3.90
2019-05-13T02:28:29.278Z,4.10
2019-05-13T02:29:29.288Z,4.20
2019-05-13T02:30:29.227Z,4.30
2019-05-13T02:31:41.437Z,4.20
2019-05-13T02:32:32.674Z,4.70
2019-05-13T02:33:29.288Z,3.90
2019-05-13T02:34:32.201Z,4.70
2019-05-13T02:35:32.255Z,4.50
2019-05-13T02:36:32.656Z,4.20
2019-05-13T02:37:30.968Z,4.50
2019-05-13T02:38:31.800Z,4.20
2019-05-13T02:39:32.237Z,4.20
2019-05-13T02:40:32.451Z,3.80
2019-05-13T02:41:29.295Z,4.00
2019-05-13T02:42:29.236Z,4.50
2019-05-13T02:43:32.952Z,4.30
2019-05-13T02:44:29.280Z,4.10
2019-05-13T02:45:29.258Z,4.10
2019-05-13T02:46:29.316Z,4.90
2019-05-13T02:47:29.294Z,4.70
2019-05-13T02:48:29.252Z,4.30
2019-05-13T02:49:32.119Z,3.90
2019-05-13T02:50:29.303Z,4.10
2019-05-13T02:51:29.274Z,3.80
2019-05-13T02:52:29.303Z,3.80
2019-05-13T02:53:29.306Z,4.40
2019-05-13T02:54:29.251Z,4.00
2019-05-13T02:55:32.671Z,4.00
2019-05-13T02:56:29.310Z,4.00
2019-05-13T02:57:32.570Z,4.10
2019-05-13T02:58:32.934Z,4.00
2019-05-13T02:59:29.291Z,4.20
2019-05-13T03:00:32.641Z,4.00
2019-05-13T03:01:32.864Z,3.80
2019-05-13T03:02:32.563Z,4.30
2019-05-13T03:03:32.407Z,3.80
2019-05-13T03:04:32.315Z,3.70
2019-05-13T03:05:31.923Z,4.10
2019-05-13T03:06:32.777Z,3.60
2019-05-13T03:07:29.299Z,4.30
2019-05-13T03:08:40.895Z,3.90
2019-05-13T03:09:32.182Z,4.20
2019-05-13T03:10:29.304Z,3.90
2019-05-13T03:11:29.307Z,4.20
2019-05-13T03:12:31.987Z,4.80
2019-05-13T03:13:32.307Z,4.70
2019-05-13T03:14:32.053Z,4.40
2019-05-13T03:15:32.462Z,4.50
2019-05-13T03:16:32.239Z,4.80
2019-05-13T03:17:32.404Z,4.60
2019-05-13T03:18:33.103Z,4.90
2019-05-13T03:19:32.974Z,4.90
2019-05-13T03:20:33.018Z,5.00
2019-05-13T03:21:32.411Z,4.70
2019-05-13T03:22:31.829Z,4.80
2019-05-13T03:23:32.440Z,4.60
2019-05-13T03:24:32.702Z,4.80
2019-05-13T03:25:32.748Z,4.50
2019-05-13T03:26:32.112Z,5.80
2019-05-13T03:27:33.316Z,5.30
2019-05-13T03:28:33.133Z,4.60
2019-05-13T03:29:32.721Z,4.40
2019-05-13T03:30:34.645Z,5.10
2019-05-13T03:31:35.221Z,4.90
2019-05-13T03:32:37.889Z,4.90
2019-05-13T03:33:29.365Z,4.60
2019-05-13T03:34:35.183Z,4.30
2019-05-13T03:35:29.320Z,4.20
2019-05-13T03:36:29.278Z,4.40
2019-05-13T03:37:29.327Z,4.30
2019-05-13T03:38:29.327Z,4.60
2019-05-13T03:39:29.314Z,4.30
2019-05-13T03:40:29.346Z,4.30
2019-05-13T03:41:29.347Z,4.30
2019-05-13T03:42:29.326Z,4.50
2019-05-13T03:43:32.416Z,4.40
2019-05-13T03:44:32.214Z,4.30
2019-05-13T03:45:32.460Z,4.30
2019-05-13T03:46:29.346Z,4.10
2019-05-13T03:47:29.322Z,4.50
2019-05-13T03:48:29.300Z,4.10
2019-05-13T03:49:32.280Z,4.00
2019-05-13T03:50:33.431Z,4.40
2019-05-13T03:51:32.473Z,4.30
2019-05-13T03:52:33.263Z,4.40
2019-05-13T03:53:32.272Z,3.90
2019-05-13T03:54:32.547Z,4.00
2019-05-13T03:55:32.574Z,4.20
2019-05-13T03:56:32.617Z,3.90
2019-05-13T03:57:29.328Z,4.00
2019-05-13T03:58:32.259Z,3.80
2019-05-13T03:59:32.905Z,4.30
2019-05-13T04:00:32.069Z,3.80
2019-05-13T04:01:32.294Z,3.60
2019-05-13T04:02:32.360Z,4.30
2019-05-13T04:03:29.339Z,4.30
2019-05-13T04:04:32.184Z,3.60
2019-05-13T04:05:33.120Z,3.70
2019-05-13T04:06:32.106Z,3.80
2019-05-13T04:07:32.409Z,3.80
2019-05-13T04:08:29.344Z,4.00
2019-05-13T04:09:32.494Z,3.90
2019-05-13T04:10:29.322Z,4.10
2019-05-13T04:11:29.365Z,3.50
2019-05-13T04:12:33.101Z,3.90
2019-05-13T04:13:29.312Z,3.50
2019-05-13T04:14:29.361Z,3.70
2019-05-13T04:15:31.845Z,3.20
2019-05-13T04:16:32.083Z,3.40
2019-05-13T04:17:32.000Z,3.60
2019-05-13T04:18:31.918Z,3.70
2019-05-13T04:19:29.408Z,3.80
2019-05-13T04:20:29.369Z,3.70
2019-05-13T04:21:29.385Z,3.70
2019-05-13T04:22:29.402Z,3.80
2019-05-13T04:23:32.021Z,3.70
2019-05-13T04:24:29.385Z,3.50
2019-05-13T04:25:32.236Z,3.40
2019-05-13T04:26:32.118Z,3.70
2019-05-13T04:27:32.577Z,3.80
2019-05-13T04:28:32.741Z,3.90
2019-05-13T04:29:32.466Z,3.60
2019-05-13T04:30:32.763Z,3.70
2019-05-13T04:31:33.046Z,3.80
2019-05-13T04:32:33.299Z,3.60
2019-05-13T04:33:29.408Z,3.40
2019-05-13T04:34:29.448Z,4.00
2019-05-13T04:35:29.413Z,3.70
2019-05-13T04:36:31.822Z,3.90
2019-05-13T04:37:32.587Z,3.60
2019-05-13T04:38:32.180Z,3.70
2019-05-13T04:39:44.624Z,3.50
2019-05-13T04:40:29.455Z,3.80
2019-05-13T04:41:29.435Z,3.50
2019-05-13T04:42:29.450Z,3.20
2019-05-13T04:43:33.707Z,3.30
2019-05-13T04:44:32.005Z,3.20
2019-05-13T04:45:32.653Z,3.40
2019-05-13T04:46:32.528Z,3.70
2019-05-13T04:47:32.815Z,3.40
2019-05-13T04:48:29.491Z,3.50
2019-05-13T04:49:32.266Z,3.20
2019-05-13T04:50:32.532Z,3.10
2019-05-13T04:51:32.717Z,3.50
2019-05-13T04:52:32.722Z,3.10
2019-05-13T04:53:33.021Z,3.20
2019-05-13T04:54:32.756Z,3.20
2019-05-13T04:55:29.396Z,3.40
2019-05-13T04:56:32.731Z,3.70
2019-05-13T04:57:29.422Z,3.30
2019-05-13T04:58:32.147Z,3.60
2019-05-13T04:59:29.457Z,3.40
2019-05-13T05:00:32.141Z,3.30
2019-05-13T05:01:32.216Z,3.50
2019-05-13T05:02:41.969Z,3.50
2019-05-13T05:03:35.170Z,3.60
2019-05-13T05:04:33.963Z,3.10
2019-05-13T05:05:32.481Z,3.50
2019-05-13T05:06:29.424Z,3.50
2019-05-13T05:07:32.535Z,3.20
2019-05-13T05:08:32.639Z,3.20
2019-05-13T05:09:29.435Z,3.30
2019-05-13T05:10:37.291Z,3.50
2019-05-13T05:11:32.114Z,3.10
2019-05-13T05:12:31.888Z,3.60
2019-05-13T05:13:32.193Z,3.80
2019-05-13T05:14:32.350Z,3.20
2019-05-13T05:15:32.252Z,3.60
2019-05-13T05:16:32.393Z,3.30
2019-05-13T05:17:32.597Z,3.30
2019-05-13T05:18:29.462Z,3.20
2019-05-13T05:19:32.090Z,3.00
2019-05-13T05:20:29.496Z,3.30
2019-05-13T05:21:29.464Z,3.50
2019-05-13T05:22:31.451Z,3.40
2019-05-13T05:23:31.768Z,3.40
2019-05-13T05:24:31.737Z,4.10
2019-05-13T05:25:29.439Z,7.00
2019-05-13T05:26:31.311Z,3.50
2019-05-13T05:27:31.558Z,4.20
2019-05-13T05:28:29.463Z,4.10
2019-05-13T05:29:29.466Z,3.20
2019-05-13T05:30:29.461Z,3.60
2019-05-13T05:31:29.439Z,3.90
2019-05-13T05:32:31.852Z,3.30
2019-05-13T05:33:31.676Z,3.20
2019-05-13T05:34:29.437Z,3.20
2019-05-13T05:35:29.476Z,3.20
2019-05-13T05:36:29.463Z,3.40
2019-05-13T05:37:31.288Z,3.50
2019-05-13T05:38:31.681Z,3.10
2019-05-13T05:39:31.394Z,3.00
2019-05-13T05:40:32.340Z,3.20
2019-05-13T05:41:31.583Z,3.00
2019-05-13T05:42:29.498Z,2.80
2019-05-13T05:43:31.470Z,3.20
2019-05-13T05:44:32.130Z,2.90
2019-05-13T05:45:31.837Z,3.00
2019-05-13T05:46:32.221Z,3.10
2019-05-13T05:47:31.657Z,3.00
2019-05-13T05:48:31.506Z,3.10
2019-05-13T05:49:31.811Z,3.20
2019-05-13T05:50:31.842Z,3.10
2019-05-13T05:51:31.498Z,3.10
2019-05-13T05:52:31.474Z,2.60
2019-05-13T05:53:31.850Z,3.10
2019-05-13T05:54:31.660Z,2.90
2019-05-13T05:55:31.665Z,2.80
2019-05-13T05:56:29.496Z,2.90
2019-05-13T05:57:31.410Z,3.00
2019-05-13T05:58:31.502Z,3.00
2019-05-13T05:59:31.826Z,3.30
2019-05-13T06:00:29.518Z,3.30
2019-05-13T06:01:29.524Z,3.10
2019-05-13T06:02:32.022Z,3.30
2019-05-13T06:03:29.562Z,2.80
2019-05-13T06:04:32.265Z,3.30
2019-05-13T06:05:31.784Z,2.90
2019-05-13T06:06:32.726Z,3.10
2019-05-13T06:07:29.552Z,3.10
2019-05-13T06:08:32.187Z,3.00
2019-05-13T06:09:32.082Z,3.10
2019-05-13T06:10:45.810Z,3.00
2019-05-13T06:11:31.192Z,3.30
2019-05-13T06:12:31.487Z,3.40
2019-05-13T06:13:31.594Z,2.90
2019-05-13T06:14:29.563Z,3.40
2019-05-13T06:15:31.500Z,2.80
2019-05-13T06:16:31.866Z,2.90
2019-05-13T06:17:31.882Z,2.90
2019-05-13T06:18:29.567Z,3.10
2019-05-13T06:19:31.715Z,3.00
2019-05-13T06:20:31.710Z,3.10
2019-05-13T06:21:31.959Z,3.20
2019-05-13T06:22:31.920Z,2.80
2019-05-13T06:23:31.236Z,2.90
2019-05-13T06:24:31.217Z,3.00
2019-05-13T06:25:33.332Z,3.40
2019-05-13T06:26:31.435Z,3.40
2019-05-13T06:27:31.694Z,2.80
2019-05-13T06:28:32.080Z,2.90
2019-05-13T06:29:31.693Z,3.40
2019-05-13T06:30:32.413Z,3.50
2019-05-13T06:31:32.082Z,3.20
2019-05-13T06:32:31.463Z,3.20
2019-05-13T06:33:31.581Z,3.20
2019-05-13T06:34:32.360Z,3.10
2019-05-13T06:35:29.615Z,3.00
2019-05-13T06:36:31.668Z,3.20
2019-05-13T06:37:29.580Z,3.00
2019-05-13T06:38:31.649Z,3.00
2019-05-13T06:39:31.702Z,2.80
2019-05-13T06:40:31.703Z,3.10
2019-05-13T06:41:32.123Z,3.30
2019-05-13T06:42:29.582Z,3.00
2019-05-13T06:43:31.455Z,3.00
2019-05-13T06:44:31.686Z,2.90
2019-05-13T06:45:31.605Z,3.00
2019-05-13T06:46:32.157Z,3.00
2019-05-13T06:47:32.044Z,3.00
2019-05-13T06:48:29.651Z,3.20
2019-05-13T06:49:32.248Z,3.20
2019-05-13T06:50:29.659Z,3.30
2019-05-13T06:51:31.398Z,3.30
2019-05-13T06:52:31.803Z,3.20
2019-05-13T06:53:32.053Z,2.90
2019-05-13T06:54:32.530Z,3.40
2019-05-13T06:55:31.578Z,3.40
2019-05-13T06:56:32.078Z,3.50
2019-05-13T06:57:32.121Z,3.50
2019-05-13T06:58:29.644Z,3.40
2019-05-13T06:59:31.594Z,3.40
2019-05-13T07:00:34.178Z,3.60
2019-05-13T07:01:32.123Z,3.60
2019-05-13T07:02:31.866Z,3.30
2019-05-13T07:03:32.075Z,3.40
2019-05-13T07:04:30.188Z,3.40
2019-05-13T07:05:31.792Z,3.60
2019-05-13T07:06:32.096Z,3.70
2019-05-13T07:07:31.723Z,3.60
2019-05-13T07:08:31.431Z,3.80
2019-05-13T07:09:32.278Z,3.60
2019-05-13T07:10:31.920Z,3.70
2019-05-13T07:11:31.393Z,4.20
2019-05-13T07:12:31.247Z,3.80
2019-05-13T07:13:32.096Z,3.70
2019-05-13T07:14:32.155Z,3.90
2019-05-13T07:15:31.488Z,3.40
2019-05-13T07:16:31.740Z,3.70
2019-05-13T07:17:32.191Z,3.90
2019-05-13T07:18:32.178Z,3.80
2019-05-13T07:19:31.908Z,4.00
2019-05-13T07:20:32.172Z,3.60
2019-05-13T07:21:32.153Z,4.00
2019-05-13T07:22:32.123Z,4.20
2019-05-13T07:23:31.904Z,6.90
2019-05-13T07:24:31.991Z,4.70
2019-05-13T07:25:32.416Z,4.20
2019-05-13T07:26:31.498Z,3.90
2019-05-13T07:27:31.820Z,3.80
2019-05-13T07:28:32.058Z,3.70
2019-05-13T07:29:32.161Z,3.80
2019-05-13T07:30:31.483Z,4.20
2019-05-13T07:31:32.201Z,4.50
2019-05-13T07:32:31.505Z,4.80
2019-05-13T07:33:32.079Z,3.80
2019-05-13T07:34:32.903Z,4.30
2019-05-13T07:35:32.221Z,4.30
2019-05-13T07:36:31.669Z,4.30
2019-05-13T07:37:31.720Z,4.20
2019-05-13T07:38:32.217Z,3.60
2019-05-13T07:39:32.389Z,3.60
2019-05-13T07:40:32.048Z,3.80
2019-05-13T07:41:36.422Z,3.90
2019-05-13T07:42:31.290Z,4.00
2019-05-13T07:43:32.051Z,4.00
2019-05-13T07:44:32.178Z,3.70
2019-05-13T07:45:31.636Z,3.90
2019-05-13T07:46:32.063Z,4.00
2019-05-13T07:47:31.414Z,4.10
2019-05-13T07:48:31.911Z,3.70
2019-05-13T07:49:31.556Z,3.90
2019-05-13T07:50:32.123Z,3.90
2019-05-13T07:51:31.617Z,3.50
2019-05-13T07:52:31.911Z,3.80
2019-05-13T07:53:32.044Z,4.30
2019-05-13T07:54:32.582Z,3.80
2019-05-13T07:55:31.609Z,3.90
2019-05-13T07:56:32.217Z,3.40
2019-05-13T07:57:31.924Z,3.50
2019-05-13T07:58:34.020Z,3.50
2019-05-13T07:59:31.792Z,3.40
2019-05-13T08:00:32.409Z,3.70
2019-05-13T08:01:29.683Z,3.90
2019-05-13T08:02:31.933Z,4.00
2019-05-13T08:03:31.725Z,4.70
2019-05-13T08:04:29.702Z,4.20
2019-05-13T08:05:31.404Z,3.60
2019-05-13T08:06:32.149Z,4.00
2019-05-13T08:07:31.535Z,3.60
2019-05-13T08:08:32.185Z,3.80
2019-05-13T08:09:31.886Z,3.50
2019-05-13T08:10:31.903Z,3.70
2019-05-13T08:11:34.937Z,3.70
2019-05-13T08:12:31.845Z,5.90
2019-05-13T08:13:31.436Z,7.20
2019-05-13T08:14:32.230Z,3.30
2019-05-13T08:15:31.686Z,3.30
2019-05-13T08:16:32.122Z,3.50
2019-05-13T08:17:32.549Z,3.90
2019-05-13T08:18:31.947Z,3.50
2019-05-13T08:19:32.218Z,3.50
2019-05-13T08:20:32.563Z,3.50
2019-05-13T08:21:32.056Z,3.70
2019-05-13T08:22:31.883Z,3.90
2019-05-13T08:23:32.156Z,5.00
2019-05-13T08:24:31.428Z,5.00
2019-05-13T08:25:31.567Z,3.50
2019-05-13T08:26:32.102Z,4.10
2019-05-13T08:27:30.750Z,4.00
2019-05-13T08:28:32.264Z,3.40
2019-05-13T08:29:32.386Z,3.70
2019-05-13T08:30:31.854Z,3.80
2019-05-13T08:31:32.043Z,3.90
2019-05-13T08:32:31.474Z,6.30
2019-05-13T08:33:32.095Z,5.60
2019-05-13T08:34:32.612Z,4.40
2019-05-13T08:35:31.498Z,4.10
2019-05-13T08:36:29.760Z,4.00
2019-05-13T08:37:31.964Z,4.00
2019-05-13T08:38:32.032Z,3.50
2019-05-13T08:39:35.792Z,3.60
2019-05-13T08:40:31.818Z,3.40
2019-05-13T08:41:32.257Z,3.30
2019-05-13T08:42:32.128Z,3.60
2019-05-13T08:43:31.610Z,3.10
2019-05-13T08:44:32.034Z,3.40
2019-05-13T08:45:31.499Z,3.80
2019-05-13T08:46:32.069Z,3.70
2019-05-13T08:47:31.371Z,3.60
2019-05-13T08:48:32.106Z,3.90
2019-05-13T08:49:32.296Z,3.90
2019-05-13T08:50:32.249Z,3.70
2019-05-13T08:51:32.251Z,3.50
2019-05-13T08:52:31.343Z,3.50
2019-05-13T08:53:31.752Z,3.80
2019-05-13T08:54:32.416Z,3.80
2019-05-13T08:55:32.042Z,3.80
2019-05-13T08:56:32.453Z,3.80
2019-05-13T08:57:31.570Z,3.80
2019-05-13T08:58:31.842Z,4.60
2019-05-13T08:59:31.747Z,4.30
2019-05-13T09:00:31.824Z,4.10
2019-05-13T09:01:31.930Z,3.10
2019-05-13T09:02:31.386Z,3.40
2019-05-13T09:03:32.455Z,3.80
2019-05-13T09:04:31.570Z,4.20
2019-05-13T09:05:31.847Z,3.80
2019-05-13T09:06:31.241Z,3.90
2019-05-13T09:07:31.882Z,3.80
2019-05-13T09:08:31.944Z,3.80
2019-05-13T09:09:31.404Z,3.50
2019-05-13T09:10:31.868Z,3.70
2019-05-13T09:11:31.489Z,3.90
2019-05-13T09:12:35.129Z,3.70
2019-05-13T09:13:29.835Z,3.80
2019-05-13T09:14:32.249Z,3.60
2019-05-13T09:15:31.612Z,3.90
2019-05-13T09:16:32.012Z,4.20
2019-05-13T09:17:31.902Z,3.90
2019-05-13T09:18:32.153Z,3.70
2019-05-13T09:19:31.985Z,3.50
2019-05-13T09:20:32.182Z,4.30
2019-05-13T09:21:31.792Z,4.30
2019-05-13T09:22:31.863Z,5.30
2019-05-13T09:23:31.450Z,5.30
2019-05-13T09:24:36.680Z,4.30
2019-05-13T09:25:31.996Z,4.30
2019-05-13T09:26:31.592Z,4.70
2019-05-13T09:27:31.861Z,4.10
2019-05-13T09:28:32.285Z,4.20
2019-05-13T09:29:32.226Z,3.90
2019-05-13T09:30:31.587Z,3.70
2019-05-13T09:31:32.224Z,3.60
2019-05-13T09:32:31.784Z,4.50
2019-05-13T09:33:32.345Z,5.00
2019-05-13T09:34:32.511Z,3.90
2019-05-13T09:35:31.579Z,3.70
2019-05-13T09:36:32.222Z,4.10
2019-05-13T09:37:31.697Z,3.70
2019-05-13T09:38:32.379Z,3.40
2019-05-13T09:39:32.089Z,3.60
2019-05-13T09:40:31.395Z,5.90
2019-05-13T09:41:32.290Z,3.80
2019-05-13T09:42:47.550Z,6.00
2019-05-13T09:43:31.505Z,5.40
2019-05-13T09:44:32.408Z,4.10
2019-05-13T09:45:32.047Z,4.20
2019-05-13T09:46:31.855Z,3.80
2019-05-13T09:47:32.034Z,4.70
2019-05-13T09:48:31.927Z,4.60
2019-05-13T09:49:32.478Z,4.60
2019-05-13T09:50:35.335Z,5.30
2019-05-13T09:51:32.176Z,4.00
2019-05-13T09:52:31.923Z,6.20
2019-05-13T09:53:32.334Z,6.00
2019-05-13T09:54:32.949Z,4.50
2019-05-13T09:55:32.477Z,5.20
2019-05-13T09:56:31.900Z,5.30
2019-05-13T09:57:32.204Z,4.00
2019-05-13T09:58:32.776Z,4.40
2019-05-13T09:59:31.927Z,5.00
2019-05-13T10:00:32.287Z,4.40
2019-05-13T10:01:32.076Z,7.40
2019-05-13T10:02:32.117Z,4.40
2019-05-13T10:03:32.890Z,4.90
2019-05-13T10:04:31.733Z,3.50
2019-05-13T10:05:31.673Z,3.60
2019-05-13T10:06:32.372Z,3.70
2019-05-13T10:07:31.869Z,3.60
2019-05-13T10:08:32.173Z,5.60
2019-05-13T10:09:32.134Z,4.40
2019-05-13T10:10:31.867Z,3.60
2019-05-13T10:11:29.930Z,3.90
2019-05-13T10:12:31.990Z,4.30
2019-05-13T10:13:31.720Z,3.90
2019-05-13T10:14:32.428Z,3.90
2019-05-13T10:15:32.350Z,3.90
2019-05-13T10:16:31.344Z,3.50
2019-05-13T10:17:31.812Z,3.80
2019-05-13T10:18:32.226Z,3.60
2019-05-13T10:19:32.283Z,3.40
2019-05-13T10:20:31.730Z,3.50
2019-05-13T10:21:32.284Z,3.00
2019-05-13T10:22:32.015Z,3.10
2019-05-13T10:23:32.699Z,3.40
2019-05-13T10:24:32.326Z,3.20
2019-05-13T10:25:29.907Z,3.40
2019-05-13T10:26:32.041Z,3.40
2019-05-13T10:27:31.892Z,3.30
2019-05-13T10:28:31.930Z,3.40
2019-05-13T10:29:31.655Z,3.00
2019-05-13T10:30:32.189Z,3.00
2019-05-13T10:31:31.458Z,3.10
2019-05-13T10:32:32.242Z,3.10
2019-05-13T10:33:31.830Z,3.30
2019-05-13T10:34:32.168Z,3.10
2019-05-13T10:35:31.704Z,3.50
2019-05-13T10:36:29.951Z,3.50
2019-05-13T10:37:29.896Z,3.10
2019-05-13T10:38:32.169Z,4.20
2019-05-13T10:39:29.947Z,5.40
2019-05-13T10:40:32.697Z,3.70
2019-05-13T10:41:32.986Z,3.30
2019-05-13T10:42:29.935Z,3.00
2019-05-13T10:43:31.691Z,4.70
2019-05-13T10:44:29.958Z,4.10
2019-05-13T10:45:32.428Z,3.90
2019-05-13T10:46:32.085Z,4.40
2019-05-13T10:47:29.962Z,3.70
2019-05-13T10:48:29.920Z,2.90
2019-05-13T10:49:32.748Z,3.40
2019-05-13T10:50:30.063Z,3.00
2019-05-13T10:51:32.205Z,2.80
2019-05-13T10:52:32.263Z,4.30
2019-05-13T10:53:32.002Z,3.70
2019-05-13T10:54:32.293Z,2.80
2019-05-13T10:55:32.236Z,3.30
2019-05-13T10:56:32.691Z,3.40
2019-05-13T10:57:31.829Z,3.30
2019-05-13T10:58:29.916Z,3.10
2019-05-13T10:59:29.938Z,4.00
2019-05-13T11:00:32.047Z,3.70
2019-05-13T11:01:32.612Z,3.30
2019-05-13T11:02:32.780Z,5.70
2019-05-13T11:03:32.811Z,3.50
2019-05-13T11:04:32.006Z,3.40
2019-05-13T11:05:32.434Z,4.20
2019-05-13T11:06:32.112Z,3.70
2019-05-13T11:07:32.016Z,3.60
2019-05-13T11:08:32.256Z,2.70
2019-05-13T11:09:32.482Z,3.00
2019-05-13T11:10:32.131Z,3.30
2019-05-13T11:11:32.969Z,2.90
2019-05-13T11:12:29.957Z,3.10
2019-05-13T11:13:49.649Z,2.70
2019-05-13T11:14:31.800Z,3.70
2019-05-13T11:15:32.859Z,3.20
2019-05-13T11:16:29.926Z,3.50
2019-05-13T11:17:31.274Z,2.90
2019-05-13T11:18:29.960Z,3.20
2019-05-13T11:19:34.379Z,2.60
2019-05-13T11:20:32.267Z,3.10
2019-05-13T11:21:32.055Z,3.30
2019-05-13T11:22:32.138Z,3.00
2019-05-13T11:23:32.125Z,3.30
2019-05-13T11:24:32.480Z,2.80
2019-05-13T11:25:32.219Z,3.00
2019-05-13T11:26:35.638Z,3.00
2019-05-13T11:27:32.194Z,3.00
2019-05-13T11:28:31.737Z,2.60
2019-05-13T11:29:32.380Z,3.00
2019-05-13T11:30:31.938Z,2.90
2019-05-13T11:31:32.543Z,3.30
2019-05-13T11:32:31.739Z,3.40
2019-05-13T11:33:31.874Z,3.80
2019-05-13T11:34:32.600Z,3.60
2019-05-13T11:35:32.005Z,3.20
2019-05-13T11:36:30.059Z,3.10
2019-05-13T11:37:32.042Z,4.10
2019-05-13T11:38:32.700Z,3.10
2019-05-13T11:39:32.496Z,4.30
2019-05-13T11:40:31.810Z,3.80
2019-05-13T11:41:32.450Z,3.00
2019-05-13T11:42:32.566Z,2.90
2019-05-13T11:43:29.964Z,4.90
2019-05-13T11:44:32.245Z,6.20
2019-05-13T11:45:31.551Z,3.90
2019-05-13T11:46:32.449Z,3.40
2019-05-13T11:47:32.283Z,3.00
2019-05-13T11:48:32.284Z,2.90
2019-05-13T11:49:31.582Z,3.00
2019-05-13T11:50:30.059Z,3.10
2019-05-13T11:51:31.983Z,3.00
2019-05-13T11:52:31.546Z,3.00
2019-05-13T11:53:33.279Z,2.80
2019-05-13T11:54:29.983Z,3.10
2019-05-13T11:55:29.997Z,2.70
2019-05-13T11:56:33.583Z,3.00
2019-05-13T11:57:31.604Z,2.70
2019-05-13T11:58:30.078Z,2.70
2019-05-13T11:59:32.674Z,2.80
2019-05-13T12:00:31.784Z,3.00
2019-05-13T12:01:32.663Z,2.70
2019-05-13T12:02:32.723Z,2.80
2019-05-13T12:03:32.375Z,2.60
2019-05-13T12:04:33.071Z,2.70
2019-05-13T12:05:32.630Z,3.00
2019-05-13T12:06:33.183Z,3.00
2019-05-13T12:07:32.269Z,2.90
2019-05-13T12:08:33.125Z,3.30
2019-05-13T12:09:32.003Z,2.80
2019-05-13T12:10:32.576Z,3.00
2019-05-13T12:11:33.118Z,3.00
2019-05-13T12:12:33.616Z,2.90
2019-05-13T12:13:32.267Z,2.80
2019-05-13T12:14:44.222Z,3.20
2019-05-13T12:15:45.508Z,2.60
2019-05-13T12:16:30.009Z,2.70
2019-05-13T12:17:33.740Z,3.00
2019-05-13T12:18:30.003Z,2.90
2019-05-13T12:19:30.019Z,2.70
2019-05-13T12:20:32.834Z,2.70
2019-05-13T12:21:30.051Z,2.70
2019-05-13T12:22:30.004Z,3.60
2019-05-13T12:23:30.052Z,2.90
2019-05-13T12:24:30.044Z,2.90
2019-05-13T12:25:33.301Z,3.00
2019-05-13T12:26:33.259Z,3.00
2019-05-13T12:27:31.749Z,2.70
2019-05-13T12:28:30.023Z,2.90
2019-05-13T12:29:30.077Z,2.40
2019-05-13T12:30:33.352Z,3.10
2019-05-13T12:31:33.631Z,3.00
2019-05-13T12:32:32.280Z,3.00
2019-05-13T12:33:32.508Z,2.60
2019-05-13T12:34:39.498Z,2.70
2019-05-13T12:35:32.831Z,2.90
2019-05-13T12:36:32.814Z,2.70
2019-05-13T12:37:30.138Z,2.60
2019-05-13T12:38:32.588Z,2.50
2019-05-13T12:39:32.074Z,2.80
2019-05-13T12:40:33.868Z,2.90
2019-05-13T12:41:32.972Z,2.60
2019-05-13T12:42:33.281Z,2.50
2019-05-13T12:43:32.020Z,2.80
2019-05-13T12:44:31.596Z,2.90
2019-05-13T12:45:30.046Z,2.50
2019-05-13T12:46:30.028Z,2.40
2019-05-13T12:47:30.074Z,2.70
2019-05-13T12:48:30.060Z,2.40
2019-05-13T12:49:33.588Z,2.40
2019-05-13T12:50:32.319Z,2.60
2019-05-13T12:51:32.470Z,2.80
2019-05-13T12:52:32.415Z,3.00
2019-05-13T12:53:32.217Z,2.60
2019-05-13T12:54:32.508Z,2.80
2019-05-13T12:55:32.921Z,2.60
2019-05-13T12:56:33.411Z,2.60
2019-05-13T12:57:32.420Z,2.80
2019-05-13T12:58:33.995Z,2.80
2019-05-13T12:59:32.093Z,2.80
2019-05-13T13:00:30.241Z,2.70
2019-05-13T13:01:32.390Z,2.60
2019-05-13T13:02:32.553Z,2.60
2019-05-13T13:03:32.290Z,2.50
2019-05-13T13:04:33.626Z,2.60
2019-05-13T13:05:36.150Z,4.20
2019-05-13T13:06:36.056Z,2.40
2019-05-13T13:07:32.507Z,2.60
2019-05-13T13:08:43.011Z,3.30
2019-05-13T13:09:33.416Z,2.80
2019-05-13T13:10:34.573Z,2.60
2019-05-13T13:11:32.397Z,2.40
2019-05-13T13:13:54.042Z,3.60
2019-05-13T13:14:38.436Z,5.20
2019-05-13T13:15:38.440Z,3.40
2019-05-13T13:16:34.894Z,4.30
2019-05-13T13:17:30.113Z,3.80
2019-05-13T13:18:30.075Z,3.90
2019-05-13T13:19:33.214Z,2.80